createdAt,value
2023-02-23T00:01:28.668Z,4.70
2023-02-23T00:02:53.420Z,4.69
2023-02-23T00:04:16.153Z,4.70
2023-02-23T00:05:38.205Z,4.80
2023-02-23T00:07:02.525Z,4.75
2023-02-23T00:08:26.561Z,4.76
2023-02-23T00:09:51.988Z,4.78
2023-02-23T00:11:14.541Z,4.76
2023-02-23T00:12:38.971Z,4.71
2023-02-23T00:14:03.209Z,4.74
2023-02-23T00:15:28.361Z,4.67
2023-02-23T00:16:54.786Z,4.68
2023-02-23T00:18:18.852Z,4.74
2023-02-23T00:19:44.081Z,4.74
2023-02-23T00:21:06.456Z,4.65
2023-02-23T00:22:29.149Z,4.70
2023-02-23T00:23:54.481Z,4.68
2023-02-23T00:25:18.826Z,4.67
2023-02-23T00:26:45.559Z,4.59
2023-02-23T00:28:07.716Z,4.64
2023-02-23T00:29:35.575Z,4.63
2023-02-23T00:31:01.984Z,4.61
2023-02-23T00:32:25.311Z,4.59
2023-02-23T00:33:51.816Z,4.57
2023-02-23T00:35:33.472Z,4.52
2023-02-23T00:36:58.682Z,4.50
2023-02-23T00:38:29.313Z,4.42
2023-02-23T00:39:56.790Z,4.48
2023-02-23T00:41:21.103Z,4.40
2023-02-23T00:42:47.028Z,4.46
2023-02-23T00:44:10.074Z,4.48
2023-02-23T00:45:34.089Z,4.47
2023-02-23T00:46:55.655Z,4.47
2023-02-23T00:48:17.905Z,4.47
2023-02-23T00:49:45.124Z,4.46
2023-02-23T00:51:06.595Z,4.45
2023-02-23T00:52:29.229Z,4.45
2023-02-23T00:53:54.931Z,4.39
2023-02-23T00:55:18.657Z,4.40
2023-02-23T00:56:40.696Z,4.44
2023-02-23T00:58:04.554Z,4.39
2023-02-23T00:59:29.870Z,4.29
2023-02-23T01:00:53.446Z,4.41
2023-02-23T01:02:17.277Z,4.40
2023-02-23T01:03:40.044Z,4.36
2023-02-23T01:05:04.552Z,4.37
2023-02-23T01:06:27.092Z,4.37
2023-02-23T01:07:49.743Z,4.31
2023-02-23T01:09:17.251Z,4.32
2023-02-23T01:10:53.393Z,4.23
2023-02-23T01:12:19.792Z,4.26
2023-02-23T01:13:45.107Z,4.21
2023-02-23T01:15:16.597Z,4.31
2023-02-23T01:16:40.207Z,4.29
2023-02-23T01:18:05.129Z,4.27
2023-02-23T01:19:29.677Z,4.22
2023-02-23T01:20:53.247Z,4.21
2023-02-23T01:22:18.382Z,4.15
2023-02-23T01:23:43.321Z,4.18
2023-02-23T01:25:06.270Z,4.18
2023-02-23T01:26:28.611Z,4.14
2023-02-23T01:27:53.907Z,4.13
2023-02-23T01:29:18.670Z,4.10
2023-02-23T01:32:27.584Z,3.97
2023-02-23T01:34:01.873Z,4.00
2023-02-23T01:35:28.825Z,4.03
2023-02-23T01:36:56.178Z,4.05
2023-02-23T01:38:25.088Z,3.96
2023-02-23T01:39:54.940Z,4.00
2023-02-23T01:41:20.515Z,3.98
2023-02-23T01:42:46.757Z,4.02
2023-02-23T01:44:31.454Z,3.99
2023-02-23T01:45:58.189Z,3.99
2023-02-23T01:47:20.628Z,4.02
2023-02-23T01:48:46.696Z,3.97
2023-02-23T01:50:11.870Z,4.02
2023-02-23T01:51:39.150Z,4.00
2023-02-23T01:53:08.675Z,3.92
2023-02-23T01:54:36.531Z,4.01
2023-02-23T01:56:02.711Z,4.00
2023-02-23T01:57:25.330Z,4.01
2023-02-23T01:58:55.648Z,3.99
2023-02-23T02:00:20.286Z,4.00
2023-02-23T02:01:46.090Z,3.88
2023-02-23T02:03:17.924Z,3.99
2023-02-23T02:04:47.287Z,3.97
2023-02-23T02:06:14.435Z,3.93
2023-02-23T02:07:39.971Z,3.92
2023-02-23T02:09:10.827Z,3.96
2023-02-23T02:10:50.825Z,3.84
2023-02-23T02:12:15.068Z,3.92
2023-02-23T02:13:38.527Z,3.92
2023-02-23T02:15:02.308Z,3.89
2023-02-23T02:16:46.950Z,3.89
2023-02-23T02:18:18.827Z,3.88
2023-02-23T02:20:26.656Z,3.87
2023-02-23T02:22:27.432Z,3.78
2023-02-23T02:24:12.284Z,3.84
2023-02-23T02:26:08.319Z,3.76
2023-02-23T02:27:48.120Z,3.78
2023-02-23T02:29:47.440Z,3.77
2023-02-23T02:31:39.403Z,3.67
2023-02-23T02:33:48.354Z,3.75
2023-02-23T02:36:00.908Z,3.65
2023-02-23T02:37:43.442Z,3.71
2023-02-23T02:39:17.624Z,3.69
2023-02-23T02:40:53.532Z,3.68
2023-02-23T02:42:27.144Z,3.67
2023-02-23T02:43:55.423Z,3.69
2023-02-23T02:45:31.370Z,3.66
2023-02-23T02:46:59.758Z,3.68
2023-02-23T02:48:33.714Z,3.68
2023-02-23T02:50:03.144Z,3.66
2023-02-23T02:51:36.889Z,3.65
2023-02-23T02:53:06.098Z,3.64
2023-02-23T02:54:32.954Z,3.55
2023-02-23T02:55:59.906Z,3.55
2023-02-23T02:57:26.691Z,3.57
2023-02-23T02:58:51.064Z,3.63
2023-02-23T03:00:37.211Z,3.62
2023-02-23T03:02:19.649Z,3.54
2023-02-23T03:04:03.967Z,3.63
2023-02-23T03:05:48.265Z,3.61
2023-02-23T03:07:34.874Z,3.58
2023-02-23T03:09:22.606Z,3.60
2023-02-23T03:11:22.382Z,3.59
2023-02-23T03:13:18.894Z,3.53
2023-02-23T03:15:09.176Z,3.51
2023-02-23T03:16:58.088Z,3.47
2023-02-23T03:18:51.128Z,3.48
2023-02-23T03:20:37.790Z,3.45
2023-02-23T03:22:25.965Z,3.45
2023-02-23T03:24:12.678Z,3.45
2023-02-23T03:26:29.174Z,3.43
2023-02-23T03:28:19.310Z,3.43
2023-02-23T03:30:05.835Z,3.43
2023-02-23T03:31:56.158Z,3.42
2023-02-23T03:33:42.683Z,3.44
2023-02-23T03:35:28.238Z,3.45
2023-02-23T03:37:13.972Z,3.39
2023-02-23T03:38:58.790Z,3.47
2023-02-23T03:40:40.535Z,3.47
2023-02-23T03:42:26.725Z,3.48
2023-02-23T03:44:12.077Z,3.49
2023-02-23T03:45:59.555Z,3.50
2023-02-23T03:47:43.665Z,3.49
2023-02-23T03:49:28.750Z,3.52
2023-02-23T03:51:13.053Z,3.53
2023-02-23T03:53:00.360Z,3.53
2023-02-23T03:54:46.285Z,3.51
2023-02-23T03:56:29.813Z,3.51
2023-02-23T03:58:16.929Z,3.52
2023-02-23T04:00:06.271Z,3.50
2023-02-23T04:01:58.724Z,3.47
2023-02-23T04:03:42.001Z,3.47
2023-02-23T04:05:28.197Z,3.45
2023-02-23T04:07:08.793Z,3.44
2023-02-23T04:08:56.188Z,3.43
2023-02-23T04:10:36.137Z,3.36
2023-02-23T04:12:22.520Z,3.40
2023-02-23T04:13:54.896Z,3.34
2023-02-23T04:15:23.199Z,3.38
2023-02-23T04:16:45.570Z,3.39
2023-02-23T04:18:09.245Z,3.38
2023-02-23T04:19:31.745Z,3.38
2023-02-23T04:20:54.260Z,3.37
2023-02-23T04:22:30.904Z,3.36
2023-02-23T04:24:41.846Z,3.38
2023-02-23T04:26:05.377Z,3.39
2023-02-23T04:27:36.957Z,3.37
2023-02-23T04:29:24.621Z,3.27
2023-02-23T04:31:34.445Z,3.37
2023-02-23T04:33:04.563Z,3.36
2023-02-23T04:40:27.321Z,3.32
2023-02-23T04:42:04.050Z,3.27
2023-02-23T04:43:26.802Z,3.22
2023-02-23T04:44:49.664Z,3.20
2023-02-23T04:46:53.267Z,3.19
2023-02-23T04:48:18.512Z,3.24
2023-02-23T04:49:44.196Z,3.23
2023-02-23T04:51:20.547Z,3.28
2023-02-23T04:52:42.683Z,3.28
2023-02-23T04:54:08.930Z,3.30
2023-02-23T04:55:36.706Z,3.31
2023-02-23T04:57:15.330Z,3.29
2023-02-23T04:59:13.451Z,3.31
2023-02-23T05:00:39.514Z,3.33
2023-02-23T05:03:41.488Z,3.31
2023-02-23T05:05:08.810Z,3.32
2023-02-23T05:06:34.236Z,3.25
2023-02-23T05:11:06.615Z,3.30
2023-02-23T05:12:39.226Z,3.25
2023-02-23T05:14:23.660Z,3.27
2023-02-23T05:15:51.871Z,3.18
2023-02-23T05:17:20.931Z,3.28
2023-02-23T05:19:10.927Z,3.26
2023-02-23T05:20:35.091Z,3.22
2023-02-23T05:22:05.909Z,3.22
2023-02-23T05:23:50.300Z,3.20
2023-02-23T05:25:32.082Z,3.22
2023-02-23T05:27:24.108Z,3.24
2023-02-23T05:28:48.053Z,3.26
2023-02-23T05:30:12.227Z,3.23
2023-02-23T05:32:45.341Z,3.26
2023-02-23T05:34:37.754Z,3.14
2023-02-23T05:35:59.950Z,3.15
2023-02-23T05:37:40.914Z,3.24
2023-02-23T05:39:04.194Z,3.27
2023-02-23T05:40:45.717Z,3.28
2023-02-23T05:42:26.359Z,3.27
2023-02-23T05:44:20.587Z,3.31
2023-02-23T05:45:52.592Z,3.20
2023-02-23T05:49:09.298Z,3.29
2023-02-23T05:50:54.965Z,3.29
2023-02-23T05:52:19.386Z,3.34
2023-02-23T05:53:59.940Z,3.24
2023-02-23T05:55:27.157Z,3.36
2023-02-23T05:56:51.660Z,3.29
2023-02-23T06:01:42.211Z,3.38
2023-02-23T06:12:42.849Z,3.41
2023-02-23T06:14:17.763Z,3.41
2023-02-23T06:15:42.123Z,3.38
2023-02-23T06:17:24.798Z,3.44
2023-02-23T06:18:47.897Z,3.47
2023-02-23T06:20:18.652Z,3.51
2023-02-23T06:21:45.757Z,3.49
2023-02-23T06:23:39.373Z,3.64
2023-02-23T06:25:13.019Z,3.62
2023-02-23T06:26:39.906Z,3.74
2023-02-23T06:30:20.809Z,3.75
2023-02-23T06:31:43.240Z,3.79
2023-02-23T06:33:09.073Z,3.84
2023-02-23T06:34:34.591Z,3.96
2023-02-23T06:35:57.341Z,3.94
2023-02-23T06:37:21.544Z,3.99
2023-02-23T06:38:45.302Z,4.02
2023-02-23T06:40:08.346Z,4.08
2023-02-23T06:41:39.660Z,4.22
2023-02-23T06:43:04.747Z,4.25
2023-02-23T06:44:48.410Z,4.30
2023-02-23T06:46:24.897Z,4.27
2023-02-23T06:47:54.366Z,4.32
2023-02-23T06:49:27.096Z,4.40
2023-02-23T06:50:55.720Z,4.41
2023-02-23T06:52:26.468Z,4.48
2023-02-23T06:54:05.653Z,4.55
2023-02-23T06:55:55.620Z,4.65
2023-02-23T06:57:23.244Z,4.66
2023-02-23T06:58:54.689Z,4.79
2023-02-23T07:00:53.606Z,4.83
2023-02-23T07:02:41.539Z,4.91
2023-02-23T07:04:27.195Z,4.96
2023-02-23T07:10:50.094Z,5.11
2023-02-23T07:12:18.897Z,5.18
2023-02-23T07:13:54.672Z,5.23
2023-02-23T07:21:35.739Z,5.45
2023-02-23T07:25:33.673Z,5.49
2023-02-23T07:27:06.061Z,5.54
2023-02-23T07:30:58.342Z,5.67
2023-02-23T07:32:37.968Z,5.67
2023-02-23T07:37:39.472Z,5.82
2023-02-23T07:39:26.130Z,5.93
2023-02-23T07:41:01.713Z,5.99
2023-02-23T07:42:27.576Z,6.12
2023-02-23T07:46:40.505Z,6.25
2023-02-23T07:51:30.101Z,6.53
2023-02-23T07:53:03.279Z,6.80
2023-02-23T07:54:43.429Z,6.94
2023-02-23T07:56:27.747Z,7.09
2023-02-23T07:57:54.188Z,7.20
2023-02-23T07:59:19.638Z,7.21
2023-02-23T08:00:45.729Z,7.36
2023-02-23T08:02:15.426Z,7.50
2023-02-23T08:03:49.265Z,7.54
2023-02-23T08:05:19.940Z,7.63
2023-02-23T08:07:07.257Z,7.79
2023-02-23T08:08:31.063Z,7.93
2023-02-23T08:09:59.940Z,8.04
2023-02-23T08:11:22.443Z,8.11
2023-02-23T08:13:01.894Z,8.20
2023-02-23T08:14:56.869Z,8.29
2023-02-23T08:16:23.315Z,8.41
2023-02-23T08:17:59.842Z,8.57
2023-02-23T08:19:24.847Z,8.68
2023-02-23T08:21:02.787Z,8.80
2023-02-23T08:22:29.377Z,8.91
2023-02-23T08:27:00.116Z,9.38
2023-02-23T08:28:35.709Z,9.49
2023-02-23T08:29:58.640Z,9.66
2023-02-23T08:31:24.918Z,9.72
2023-02-23T08:33:12.015Z,9.87
2023-02-23T08:34:56.455Z,9.96
2023-02-23T08:36:22.696Z,10.07
2023-02-23T08:37:57.001Z,10.12
2023-02-23T08:39:47.026Z,10.29
2023-02-23T08:42:05.412Z,10.47
2023-02-23T08:44:25.272Z,10.59
2023-02-23T08:50:05.820Z,10.93
2023-02-23T08:51:24.747Z,11.03
2023-02-23T08:53:26.897Z,11.07
2023-02-23T08:55:03.492Z,11.24
2023-02-23T08:56:35.314Z,11.28
2023-02-23T08:58:20.278Z,11.36
2023-02-23T08:59:57.269Z,11.51
2023-02-23T09:01:32.246Z,11.57
2023-02-23T09:03:11.732Z,11.70
2023-02-23T09:04:38.965Z,11.77
2023-02-23T09:06:53.907Z,11.90
2023-02-23T09:08:34.228Z,11.97
2023-02-23T09:10:05.129Z,12.16
2023-02-23T09:11:34.026Z,12.40
2023-02-23T09:13:10.867Z,12.65
2023-02-23T09:14:54.058Z,12.81
2023-02-23T09:16:19.444Z,12.94
2023-02-23T09:18:01.859Z,13.01
2023-02-23T09:19:34.013Z,13.13
2023-02-23T09:23:08.407Z,13.42
2023-02-23T09:24:31.424Z,13.56
2023-02-23T09:26:09.956Z,13.62
2023-02-23T09:27:40.991Z,13.57
2023-02-23T09:29:06.496Z,13.63
2023-02-23T09:30:42.532Z,13.60
2023-02-23T09:32:18.162Z,13.62
2023-02-23T09:34:17.700Z,13.66
2023-02-23T09:35:43.492Z,13.64
2023-02-23T09:37:10.081Z,13.66
2023-02-23T09:38:32.886Z,13.71
2023-02-23T09:39:58.149Z,13.81
2023-02-23T09:41:58.526Z,13.81
2023-02-23T09:43:31.018Z,13.86
2023-02-23T09:45:05.885Z,13.84
2023-02-23T09:46:37.306Z,13.81
2023-02-23T09:48:35.564Z,13.84
2023-02-23T09:50:06.863Z,13.85
2023-02-23T09:51:32.591Z,13.83
2023-02-23T09:53:07.883Z,13.72
2023-02-23T09:54:39.219Z,13.73
2023-02-23T09:56:22.101Z,13.71
2023-02-23T09:58:04.666Z,13.67
2023-02-23T09:59:29.425Z,13.61
2023-02-23T10:01:12.981Z,13.54
2023-02-23T10:02:41.010Z,13.46
2023-02-23T10:04:26.128Z,13.38
2023-02-23T10:05:59.042Z,13.39
2023-02-23T10:07:24.583Z,13.28
2023-02-23T10:08:52.775Z,13.33
2023-02-23T10:10:28.235Z,13.34
2023-02-23T10:12:12.194Z,13.41
2023-02-23T10:13:46.867Z,13.50
2023-02-23T10:15:25.131Z,13.57
2023-02-23T10:16:59.285Z,13.62
2023-02-23T10:18:48.612Z,13.64
2023-02-23T10:20:24.791Z,13.64
2023-02-23T10:21:57.515Z,13.66
2023-02-23T10:23:31.416Z,13.68
2023-02-23T10:25:06.657Z,13.67
2023-02-23T10:26:36.739Z,13.64
2023-02-23T10:28:06.851Z,13.66
2023-02-23T10:29:34.090Z,13.57
2023-02-23T10:30:59.472Z,13.55
2023-02-23T10:32:31.729Z,13.49
2023-02-23T10:34:01.974Z,13.36
2023-02-23T10:35:29.447Z,13.34
2023-02-23T10:37:19.808Z,13.30
2023-02-23T10:38:57.661Z,13.18
2023-02-23T10:40:24.168Z,13.19
2023-02-23T10:41:53.795Z,13.10
2023-02-23T10:43:18.231Z,13.02
2023-02-23T10:44:57.737Z,12.89
2023-02-23T10:46:42.358Z,12.88
2023-02-23T10:48:09.219Z,12.75
2023-02-23T10:49:40.698Z,12.76
2023-02-23T10:51:13.148Z,12.66
2023-02-23T10:52:43.994Z,12.58
2023-02-23T10:54:42.357Z,12.53
2023-02-23T10:56:10.912Z,12.39
2023-02-23T10:57:40.552Z,12.41
2023-02-23T10:59:03.629Z,12.38
2023-02-23T11:00:40.237Z,12.30
2023-02-23T11:02:25.674Z,12.24
2023-02-23T11:04:05.438Z,12.23
2023-02-23T11:05:44.858Z,12.20
2023-02-23T11:07:16.511Z,12.13
2023-02-23T11:08:41.501Z,12.15
2023-02-23T11:10:33.061Z,12.07
2023-02-23T11:12:00.771Z,12.11
2023-02-23T11:13:23.997Z,12.10
2023-02-23T11:14:47.281Z,12.13
2023-02-23T11:16:15.831Z,12.06
2023-02-23T11:17:40.024Z,12.18
2023-02-23T11:19:07.580Z,12.20
2023-02-23T11:20:35.881Z,12.19
2023-02-23T11:22:06.060Z,12.20
2023-02-23T11:23:31.689Z,12.24
2023-02-23T11:24:59.782Z,12.32
2023-02-23T11:26:33.245Z,12.30
2023-02-23T11:27:57.217Z,12.39
2023-02-23T11:29:28.116Z,12.39
2023-02-23T11:31:02.186Z,12.40
2023-02-23T11:32:44.539Z,12.42
2023-02-23T11:34:11.772Z,12.43
2023-02-23T11:35:38.606Z,12.56
2023-02-23T11:37:06.493Z,12.62
2023-02-23T11:39:17.812Z,12.61
2023-02-23T11:41:12.902Z,12.63
2023-02-23T11:42:55.298Z,12.73
2023-02-23T11:44:23.759Z,12.73
2023-02-23T11:45:51.460Z,12.79
2023-02-23T11:47:20.872Z,12.81
2023-02-23T11:48:51.583Z,12.83
2023-02-23T11:50:23.954Z,12.85
2023-02-23T11:51:51.539Z,12.83
2023-02-23T11:53:20.570Z,12.88
2023-02-23T11:55:24.446Z,12.89
2023-02-23T11:56:58.151Z,12.87
2023-02-23T11:58:25.140Z,12.85
2023-02-23T11:59:52.227Z,12.95
2023-02-23T12:01:17.555Z,12.97
2023-02-23T12:02:53.896Z,13.00
2023-02-23T12:04:30.629Z,13.02
2023-02-23T12:05:57.671Z,13.10
2023-02-23T12:07:46.736Z,13.15
2023-02-23T12:09:20.954Z,13.22
2023-02-23T12:10:46.061Z,13.28
2023-02-23T12:12:51.685Z,13.24
2023-02-23T12:14:27.185Z,13.41
2023-02-23T12:16:00.024Z,13.47
2023-02-23T12:18:05.593Z,13.52
2023-02-23T12:19:50.201Z,13.53
2023-02-23T12:23:58.011Z,13.49
2023-02-23T12:25:53.258Z,13.44
2023-02-23T12:27:53.065Z,13.38
2023-02-23T12:29:43.628Z,13.40
2023-02-23T12:31:35.942Z,13.38
2023-02-23T12:33:16.006Z,13.29
2023-02-23T12:34:44.403Z,13.33
2023-02-23T12:36:18.113Z,13.30
2023-02-23T12:37:50.831Z,13.32
2023-02-23T12:39:24.758Z,13.32
2023-02-23T12:40:51.099Z,13.27
2023-02-23T12:42:20.563Z,13.30
2023-02-23T12:43:51.531Z,13.32
2023-02-23T12:45:24.580Z,13.40
2023-02-23T12:46:55.001Z,13.40
2023-02-23T12:48:30.460Z,13.38
2023-02-23T12:49:57.452Z,13.46
2023-02-23T12:51:27.583Z,13.48
2023-02-23T12:52:54.802Z,13.51
2023-02-23T12:54:18.924Z,13.54
2023-02-23T12:56:07.978Z,13.53
2023-02-23T12:57:50.359Z,13.55
2023-02-23T12:59:47.669Z,13.49
2023-02-23T13:01:22.072Z,13.56
2023-02-23T13:02:52.050Z,13.58
2023-02-23T13:04:34.320Z,13.53
2023-02-23T13:06:05.592Z,13.52
2023-02-23T13:07:44.187Z,13.56
2023-02-23T13:09:26.507Z,13.60
2023-02-23T13:11:09.823Z,13.54
2023-02-23T13:12:51.593Z,13.61
2023-02-23T13:14:19.627Z,13.65
2023-02-23T13:15:54.541Z,13.64
2023-02-23T13:17:33.534Z,13.65
2023-02-23T13:19:12.711Z,13.69
2023-02-23T13:20:42.302Z,13.70
2023-02-23T13:22:47.573Z,13.80
2023-02-23T13:24:38.486Z,13.73
2023-02-23T13:26:17.682Z,13.76
2023-02-23T13:27:51.690Z,13.79
2023-02-23T13:29:36.321Z,13.82
2023-02-23T13:31:17.683Z,13.86
2023-02-23T13:32:46.234Z,13.86
2023-02-23T13:34:22.768Z,13.85
2023-02-23T13:35:48.291Z,13.84
2023-02-23T13:37:13.919Z,13.84
2023-02-23T13:38:44.980Z,13.79
2023-02-23T13:40:43.205Z,13.70
2023-02-23T13:42:40.402Z,13.68
2023-02-23T13:44:11.298Z,13.77
2023-02-23T13:46:14.929Z,13.72
2023-02-23T13:47:55.744Z,13.64
2023-02-23T13:49:34.976Z,13.65
2023-02-23T13:51:29.915Z,13.57
2023-02-23T13:53:01.463Z,13.61
2023-02-23T13:54:32.154Z,13.61
2023-02-23T13:56:12.844Z,13.54
2023-02-23T13:57:37.620Z,13.56
2023-02-23T13:59:02.569Z,13.51
2023-02-23T14:00:35.202Z,13.45
2023-02-23T14:02:14.203Z,13.41
2023-02-23T14:04:12.747Z,13.34
2023-02-23T14:06:12.868Z,13.41
2023-02-23T14:08:48.844Z,13.34
2023-02-23T14:10:21.905Z,13.31
2023-02-23T14:12:06.507Z,13.29
2023-02-23T14:14:03.441Z,13.23
2023-02-23T14:16:24.782Z,13.12
2023-02-23T14:17:58.311Z,13.08
2023-02-23T14:19:42.838Z,13.03
2023-02-23T14:21:25.000Z,12.99
2023-02-23T14:23:28.790Z,12.97
2023-02-23T14:26:08.220Z,12.84
2023-02-23T14:27:45.977Z,12.75
2023-02-23T14:29:25.565Z,12.73
2023-02-23T14:31:00.519Z,12.68
2023-02-23T14:33:16.430Z,12.64
2023-02-23T14:35:01.335Z,12.60
2023-02-23T14:36:46.948Z,12.53
2023-02-23T14:38:29.985Z,12.52
2023-02-23T14:40:24.780Z,12.43
2023-02-23T14:42:08.822Z,12.50
2023-02-23T14:43:52.259Z,12.44
2023-02-23T14:45:32.069Z,12.39
2023-02-23T14:47:26.656Z,12.44
2023-02-23T14:49:01.242Z,12.38
2023-02-23T14:52:29.878Z,12.42
2023-02-23T14:56:09.153Z,12.30
2023-02-23T14:57:34.233Z,12.27
2023-02-23T14:58:58.363Z,12.28
2023-02-23T15:00:26.040Z,12.24
2023-02-23T15:01:57.320Z,12.20
2023-02-23T15:03:38.720Z,12.10
2023-02-23T15:05:38.050Z,12.02
2023-02-23T15:07:24.412Z,11.99
2023-02-23T15:08:57.050Z,11.92
2023-02-23T15:10:38.584Z,11.87
2023-02-23T15:12:27.273Z,11.78
2023-02-23T15:13:52.443Z,11.78
2023-02-23T15:15:23.672Z,11.73
2023-02-23T15:16:55.469Z,11.71
2023-02-23T15:18:23.674Z,11.61
2023-02-23T15:19:50.943Z,11.63
2023-02-23T15:21:23.888Z,11.63
2023-02-23T15:22:50.293Z,11.60
2023-02-23T15:24:40.466Z,11.57
2023-02-23T15:26:35.629Z,11.51
2023-02-23T15:28:32.444Z,11.43
2023-02-23T15:29:58.076Z,11.41
2023-02-23T15:31:21.982Z,11.37
2023-02-23T15:32:45.092Z,11.38
2023-02-23T15:34:12.360Z,11.41
2023-02-23T15:36:04.659Z,11.32
2023-02-23T15:37:39.947Z,11.34
2023-02-23T15:39:06.770Z,11.33
2023-02-23T15:40:40.184Z,11.29
2023-02-23T15:42:06.308Z,11.27
2023-02-23T15:43:35.803Z,11.27
2023-02-23T15:45:31.637Z,11.20
2023-02-23T15:46:57.124Z,11.17
2023-02-23T15:48:22.952Z,11.14
2023-02-23T15:49:47.362Z,11.10
2023-02-23T15:51:23.096Z,11.06
2023-02-23T15:53:00.083Z,11.03
2023-02-23T15:54:48.117Z,10.98
2023-02-23T15:56:24.639Z,10.90
2023-02-23T15:57:49.594Z,10.88
2023-02-23T16:02:06.042Z,10.69
2023-02-23T16:06:01.321Z,10.64
2023-02-23T16:07:26.242Z,10.53
2023-02-23T16:09:01.069Z,10.58
2023-02-23T16:10:30.523Z,10.53
2023-02-23T16:11:55.333Z,10.51
2023-02-23T16:13:31.927Z,10.47
2023-02-23T16:15:00.678Z,10.40
2023-02-23T16:16:32.784Z,10.40
2023-02-23T16:18:35.540Z,10.28
2023-02-23T16:20:09.334Z,10.29
2023-02-23T16:21:49.786Z,10.26
2023-02-23T16:23:45.305Z,10.19
2023-02-23T16:25:15.311Z,10.20
2023-02-23T16:27:09.438Z,10.08
2023-02-23T16:35:17.869Z,10.01
2023-02-23T16:44:56.666Z,9.76
2023-02-23T16:46:25.836Z,9.80
2023-02-23T16:48:09.790Z,9.75
2023-02-23T16:49:48.691Z,9.77
2023-02-23T16:51:26.127Z,9.66
2023-02-23T16:52:52.097Z,9.72
2023-02-23T16:54:19.854Z,9.74
2023-02-23T16:55:57.410Z,9.69
2023-02-23T16:57:32.243Z,9.64
2023-02-23T16:59:04.134Z,9.64
2023-02-23T17:03:24.841Z,9.61
2023-02-23T17:04:52.440Z,9.58
2023-02-23T17:08:58.003Z,9.49
2023-02-23T17:12:44.004Z,9.43
2023-02-23T17:14:08.978Z,9.44
2023-02-23T17:16:06.329Z,9.40
2023-02-23T17:17:36.397Z,9.39
2023-02-23T17:19:03.839Z,9.38
2023-02-23T17:20:27.410Z,9.36
2023-02-23T17:21:53.383Z,9.42
2023-02-23T17:23:22.694Z,9.35
2023-02-23T17:28:37.836Z,9.33
2023-02-23T17:30:05.320Z,9.29
2023-02-23T17:31:32.240Z,9.28
2023-02-23T17:32:58.280Z,9.32
2023-02-23T17:35:00.316Z,9.31
2023-02-23T17:36:19.727Z,9.20
2023-02-23T17:37:46.299Z,9.19
2023-02-23T17:39:40.719Z,9.21
2023-02-23T17:41:16.431Z,9.22
2023-02-23T17:42:42.292Z,9.25
2023-02-23T17:44:07.978Z,9.21
2023-02-23T17:45:39.826Z,9.24
2023-02-23T17:47:01.974Z,9.20
2023-02-23T17:48:25.166Z,9.24
2023-02-23T17:49:47.667Z,9.25
2023-02-23T17:51:12.232Z,9.17
2023-02-23T17:52:34.005Z,9.22
2023-02-23T17:53:59.123Z,9.23
2023-02-23T17:55:23.865Z,9.21
2023-02-23T17:56:46.274Z,9.21
2023-02-23T17:58:08.552Z,9.22
2023-02-23T17:59:32.209Z,9.25
2023-02-23T18:00:56.739Z,9.23
2023-02-23T18:02:27.178Z,9.25
2023-02-23T18:03:59.804Z,9.25
2023-02-23T18:05:23.824Z,9.17
2023-02-23T18:06:46.159Z,9.26
2023-02-23T18:08:16.215Z,9.24
2023-02-23T18:09:39.065Z,9.24
2023-02-23T18:11:03.944Z,9.18
2023-02-23T18:12:26.404Z,9.26
2023-02-23T18:16:33.519Z,9.17
2023-02-23T18:17:59.518Z,9.18
2023-02-23T18:19:33.706Z,9.21
2023-02-23T18:21:25.418Z,9.24
2023-02-23T18:26:27.838Z,9.20
2023-02-23T18:27:30.870Z,9.13
2023-02-23T18:29:24.702Z,9.17
2023-02-23T18:31:04.150Z,9.11
2023-02-23T18:32:40.340Z,9.13
